createdAt,value
2023-03-05T00:03:15.470Z,36.28
2023-03-05T00:08:14.320Z,46.90
2023-03-05T00:13:13.055Z,37.92
2023-03-05T00:18:13.237Z,37.55
2023-03-05T00:23:12.006Z,34.05
2023-03-05T00:28:11.206Z,36.67
2023-03-05T00:33:10.995Z,39.03
2023-03-05T00:38:11.684Z,37.38
2023-03-05T00:43:11.108Z,35.10
2023-03-05T00:48:10.715Z,43.08
2023-03-05T00:53:10.966Z,41.05
2023-03-05T00:58:09.843Z,41.28
2023-03-05T01:03:09.252Z,39.30
2023-03-05T01:08:08.095Z,41.13
2023-03-05T01:13:08.334Z,34.35
2023-03-05T01:18:07.120Z,36.75
2023-03-05T01:23:05.907Z,42.35
2023-03-05T01:28:04.994Z,38.03
2023-03-05T01:33:05.770Z,41.35
2023-03-05T01:38:04.550Z,41.42
2023-03-05T01:43:22.366Z,46.13
2023-03-05T01:48:22.715Z,36.22
2023-03-05T01:53:21.766Z,44.03
2023-03-05T01:58:20.603Z,40.70
2023-03-05T02:03:21.372Z,43.13
2023-03-05T02:08:23.708Z,43.20
2023-03-05T02:13:24.927Z,38.43
2023-03-05T02:18:23.994Z,42.03
2023-03-05T02:23:26.078Z,43.28
2023-03-05T02:28:27.790Z,43.70
2023-03-05T02:33:26.696Z,46.20
2023-03-05T02:38:26.905Z,41.22
2023-03-05T02:43:25.668Z,43.50
2023-03-05T02:48:25.274Z,41.28
2023-03-05T02:53:24.329Z,40.05
2023-03-05T02:58:24.857Z,46.65
2023-03-05T03:03:23.953Z,46.35
2023-03-05T03:08:22.845Z,46.30
2023-03-05T03:13:21.616Z,39.03
2023-03-05T03:18:21.886Z,34.85
2023-03-05T03:23:20.594Z,43.35
2023-03-05T03:28:19.437Z,43.92
2023-03-05T03:33:18.373Z,45.38
2023-03-05T03:38:18.559Z,49.00
2023-03-05T03:43:17.278Z,45.53
2023-03-05T03:48:16.048Z,43.78
2023-03-05T03:53:17.526Z,43.35
2023-03-05T03:58:20.179Z,49.80
2023-03-05T04:03:18.921Z,49.47
2023-03-05T04:08:17.739Z,46.47
2023-03-05T04:13:17.859Z,44.25
2023-03-05T04:18:16.629Z,44.13
2023-03-05T04:23:15.391Z,44.15
2023-03-05T04:28:14.272Z,48.38
2023-03-05T04:33:14.422Z,47.53
2023-03-05T04:38:13.468Z,43.92
2023-03-05T04:43:12.394Z,52.72
2023-03-05T04:48:12.457Z,46.83
2023-03-05T04:53:12.602Z,46.35
2023-03-05T04:58:11.555Z,43.50
2023-03-05T05:03:10.554Z,45.42
2023-03-05T05:08:09.345Z,45.17
2023-03-05T05:13:09.558Z,39.28
2023-03-05T05:18:08.327Z,43.83
2023-03-05T05:23:07.127Z,42.97
2023-03-05T05:28:06.394Z,94.90
2023-03-05T05:33:06.600Z,198.45
2023-03-05T05:38:05.400Z,172.93
2023-03-05T05:43:04.296Z,255.57
2023-03-05T05:48:03.128Z,101.82
2023-03-05T05:53:05.408Z,61.90
2023-03-05T05:58:04.374Z,54.85
2023-03-05T06:03:03.175Z,43.35
2023-03-05T06:08:03.342Z,48.20
2023-03-05T06:13:02.140Z,43.13
2023-03-05T06:18:01.169Z,40.90
2023-03-05T06:23:00.098Z,50.45
2023-03-05T06:28:00.859Z,46.72
2023-03-05T06:32:59.691Z,51.25
2023-03-05T06:37:58.573Z,40.35
2023-03-05T06:42:57.249Z,43.85
2023-03-05T06:47:57.446Z,41.42
2023-03-05T06:52:56.296Z,38.85
2023-03-05T06:57:55.139Z,44.53
2023-03-05T07:02:53.954Z,43.88
2023-03-05T07:07:54.230Z,48.40
2023-03-05T07:12:52.998Z,45.30
2023-03-05T07:17:52.129Z,44.33
2023-03-05T07:22:50.995Z,42.35
2023-03-05T07:27:53.655Z,40.85
2023-03-05T07:32:52.371Z,42.83
2023-03-05T07:37:51.160Z,48.85
2023-03-05T07:42:51.374Z,41.03
2023-03-05T07:48:00.381Z,46.80
2023-03-05T07:52:59.258Z,44.50
2023-03-05T07:57:59.502Z,50.40
2023-03-05T08:02:58.234Z,43.25
2023-03-05T08:07:57.009Z,41.78
2023-03-05T08:12:55.921Z,41.50
2023-03-05T08:17:56.232Z,45.03
2023-03-05T08:22:54.975Z,43.75
2023-03-05T08:27:53.889Z,39.53
2023-03-05T08:32:53.138Z,49.88
2023-03-05T08:37:53.277Z,45.95
2023-03-05T08:42:52.437Z,47.35
2023-03-05T08:47:51.358Z,44.40
2023-03-05T08:52:50.583Z,45.72
2023-03-05T08:57:50.852Z,48.47
2023-03-05T09:02:49.900Z,38.67
2023-03-05T09:07:48.656Z,43.63
2023-03-05T09:12:49.283Z,47.15
2023-03-05T09:17:49.512Z,45.78
2023-03-05T09:22:48.267Z,51.08
2023-03-05T09:27:46.964Z,48.83
2023-03-05T09:32:45.867Z,44.72
2023-03-05T09:37:46.137Z,47.08
2023-03-05T09:42:59.989Z,43.03
2023-03-05T09:48:08.459Z,42.33
2023-03-05T09:53:21.906Z,47.83
2023-03-05T09:58:30.977Z,42.85
2023-03-05T10:03:33.359Z,37.40
2023-03-05T10:08:46.731Z,38.47
2023-03-05T10:13:47.331Z,38.85
2023-03-05T10:18:54.245Z,38.85
2023-03-05T10:24:06.059Z,37.90
2023-03-05T10:29:20.367Z,35.63
2023-03-05T10:34:50.342Z,38.05
2023-03-05T10:40:05.849Z,39.13
2023-03-05T10:45:16.555Z,37.60
2023-03-05T10:50:19.654Z,38.47
2023-03-05T10:55:22.260Z,39.30
2023-03-05T11:00:22.713Z,37.67
2023-03-05T11:05:47.158Z,37.83
2023-03-05T11:10:49.426Z,50.22
2023-03-05T11:16:01.316Z,37.85
2023-03-05T11:21:10.176Z,37.92
2023-03-05T11:26:22.778Z,40.22
2023-03-05T11:31:27.087Z,38.50
2023-03-05T11:36:27.963Z,34.95
2023-03-05T11:41:40.645Z,39.00
2023-03-05T11:46:43.977Z,34.58
2023-03-05T11:51:47.288Z,38.13
2023-03-05T11:56:48.629Z,37.67
2023-03-05T12:01:50.445Z,36.22
2023-03-05T12:06:52.468Z,38.70
2023-03-05T12:11:59.152Z,36.50
2023-03-05T12:17:07.276Z,33.55
2023-03-05T12:22:16.448Z,41.50
2023-03-05T12:27:35.219Z,51.78
2023-03-05T12:33:02.385Z,58.70
2023-03-05T12:38:24.315Z,37.45
2023-03-05T12:43:33.397Z,38.47
2023-03-05T12:48:45.749Z,44.38
2023-03-05T12:53:47.315Z,55.20
2023-03-05T12:58:50.940Z,35.10
2023-03-05T13:03:55.767Z,47.65
2023-03-05T13:09:00.179Z,35.78
2023-03-05T13:14:00.797Z,46.35
2023-03-05T13:19:02.770Z,44.58
2023-03-05T13:24:04.745Z,26.65
2023-03-05T13:34:15.550Z,28.75
2023-03-05T13:39:22.317Z,29.60
2023-03-05T13:44:22.992Z,31.48
2023-03-05T13:49:24.393Z,34.55
2023-03-05T13:54:25.000Z,30.15
2023-03-05T13:59:28.558Z,35.03
2023-03-05T14:04:29.458Z,34.25
2023-03-05T14:09:30.629Z,29.23
2023-03-05T14:14:34.009Z,34.45
2023-03-05T14:19:36.776Z,28.10
2023-03-05T14:24:35.856Z,29.15
2023-03-05T14:29:37.090Z,36.30
2023-03-05T14:34:38.476Z,31.10
2023-03-05T14:39:51.157Z,29.42
2023-03-05T14:44:55.806Z,36.28
2023-03-05T14:49:54.817Z,32.15
2023-03-05T14:55:04.697Z,31.08
2023-03-05T15:00:08.783Z,33.25
2023-03-05T15:05:12.584Z,30.25
2023-03-05T15:10:17.755Z,28.15
2023-03-05T15:15:20.094Z,34.47
2023-03-05T15:20:22.239Z,38.70
2023-03-05T15:25:23.274Z,36.25
2023-03-05T15:30:29.561Z,41.47
2023-03-05T15:35:31.993Z,38.00
2023-03-05T15:40:31.703Z,36.17
2023-03-05T15:45:31.914Z,32.58
2023-03-05T15:50:30.889Z,40.08
2023-03-05T15:55:31.597Z,46.10
2023-03-05T16:00:33.176Z,48.35
2023-03-05T16:05:35.250Z,53.30
2023-03-05T16:10:36.726Z,56.92
2023-03-05T16:15:39.629Z,57.55
2023-03-05T16:20:40.378Z,54.70
2023-03-05T16:25:40.396Z,54.75
2023-03-05T16:30:43.351Z,60.42
2023-03-05T16:35:43.231Z,61.13
2023-03-05T16:41:06.743Z,56.72
2023-03-05T16:46:06.344Z,64.63
2023-03-05T16:51:07.167Z,68.22
2023-03-05T16:56:09.506Z,75.90
2023-03-05T17:01:15.583Z,79.78
2023-03-05T17:06:19.242Z,78.75
2023-03-05T17:11:20.856Z,75.10
2023-03-05T17:16:22.378Z,76.07
2023-03-05T17:21:21.519Z,93.07
2023-03-05T17:26:22.182Z,84.85
2023-03-05T17:31:22.329Z,95.05
2023-03-05T17:36:21.941Z,91.03
2023-03-05T17:41:22.092Z,88.75
2023-03-05T17:46:22.297Z,116.68
2023-03-05T17:51:21.199Z,156.48
2023-03-05T17:56:22.234Z,106.30
2023-03-05T18:01:27.545Z,91.70
2023-03-05T18:06:26.753Z,77.35
2023-03-05T18:11:25.800Z,71.25
2023-03-05T18:16:26.100Z,53.83
2023-03-05T18:21:28.249Z,43.47
2023-03-05T18:26:27.037Z,37.90
2023-03-05T18:31:27.578Z,24.00
2023-03-05T18:36:27.945Z,24.95
2023-03-05T18:41:29.222Z,23.52
2023-03-05T18:46:33.712Z,33.97
2023-03-05T18:51:33.041Z,28.10
2023-03-05T18:56:31.955Z,26.77
2023-03-05T19:01:32.253Z,25.40
2023-03-05T19:06:31.107Z,23.25
2023-03-05T19:11:29.909Z,20.67
2023-03-05T19:16:39.418Z,22.33
2023-03-05T19:21:38.233Z,27.35
2023-03-05T19:26:36.937Z,23.73
2023-03-05T19:31:38.378Z,21.42
2023-03-05T19:36:37.757Z,22.25
2023-03-05T19:41:37.232Z,23.42
2023-03-05T19:46:37.425Z,18.45
2023-03-05T19:51:39.943Z,20.33
2023-03-05T19:56:39.326Z,18.70
2023-03-05T20:01:39.591Z,19.42
2023-03-05T20:06:38.445Z,18.85
2023-03-05T20:11:37.529Z,23.10
2023-03-05T20:16:38.794Z,21.55
2023-03-05T20:21:41.934Z,18.25
2023-03-05T20:26:41.683Z,22.25
2023-03-05T20:31:42.095Z,19.00
2023-03-05T20:36:42.468Z,19.75
2023-03-05T20:41:41.447Z,19.98
2023-03-05T20:47:26.322Z,18.52
2023-03-05T20:52:29.938Z,21.50
2023-03-05T21:02:27.395Z,19.67
2023-03-05T21:07:29.697Z,18.92
2023-03-05T21:12:31.549Z,18.73
2023-03-05T21:17:34.557Z,15.52
2023-03-05T21:22:34.953Z,15.80
2023-03-05T21:27:33.796Z,18.05
2023-03-05T21:32:32.656Z,16.40
2023-03-05T21:37:31.446Z,17.90
2023-03-05T21:42:34.686Z,19.88
2023-03-05T21:47:33.826Z,19.83
2023-03-05T21:52:32.854Z,15.30
2023-03-05T21:57:32.528Z,18.65
2023-03-05T22:02:33.053Z,15.07
2023-03-05T22:07:31.782Z,16.45
2023-03-05T22:13:13.404Z,17.83
2023-03-05T22:18:14.031Z,16.20
2023-03-05T22:23:13.520Z,14.60
2023-03-05T22:28:16.294Z,17.27
2023-03-05T22:33:32.594Z,14.73
2023-03-05T22:38:31.325Z,16.42
2023-03-05T22:43:30.105Z,17.48
2023-03-05T22:48:28.776Z,15.98
2023-03-05T22:53:28.967Z,13.57
2023-03-05T22:58:27.735Z,13.65
2023-03-05T23:03:26.778Z,16.80
2023-03-05T23:08:25.499Z,16.75
2023-03-05T23:13:25.608Z,18.10
2023-03-05T23:18:24.315Z,15.98
2023-03-05T23:23:22.996Z,17.15
2023-03-05T23:28:21.911Z,14.35
2023-03-05T23:33:23.990Z,15.30
2023-03-05T23:38:23.820Z,15.35
2023-03-05T23:43:25.811Z,15.88
2023-03-05T23:48:27.259Z,15.90
2023-03-05T23:53:27.977Z,15.25
2023-03-05T23:58:26.819Z,16.00
